createdAt,value
2019-05-05T00:01:34.437Z,13.89
2019-05-05T00:04:07.296Z,13.84
2019-05-05T00:06:38.880Z,13.84
2019-05-05T00:09:10.383Z,13.86
2019-05-05T00:11:51.948Z,13.85
2019-05-05T00:14:44.270Z,13.78
2019-05-05T00:17:19.468Z,13.74
2019-05-05T00:19:49.981Z,13.65
2019-05-05T00:22:20.623Z,13.60
2019-05-05T00:24:51.138Z,13.55
2019-05-05T00:27:25.279Z,13.52
2019-05-05T00:29:56.288Z,13.51
2019-05-05T00:32:26.789Z,13.53
2019-05-05T00:34:57.217Z,13.46
2019-05-05T00:37:29.717Z,13.42
2019-05-05T00:40:00.229Z,13.43
2019-05-05T00:42:30.741Z,13.42
2019-05-05T00:45:01.257Z,13.42
2019-05-05T00:47:34.491Z,13.41
2019-05-05T00:50:06.663Z,13.36
2019-05-05T00:52:37.759Z,13.37
2019-05-05T00:55:08.318Z,13.35
2019-05-05T00:57:38.811Z,13.33
2019-05-05T01:00:16.138Z,13.29
2019-05-05T01:02:51.167Z,13.25
2019-05-05T01:05:34.291Z,13.19
2019-05-05T01:08:05.898Z,13.20
2019-05-05T01:10:37.442Z,13.14
2019-05-05T01:13:08.039Z,13.11
2019-05-05T01:15:38.563Z,13.07
2019-05-05T01:18:15.288Z,12.97
2019-05-05T01:20:46.824Z,12.94
2019-05-05T01:23:17.301Z,12.93
2019-05-05T01:25:48.745Z,12.92
2019-05-05T01:28:19.299Z,12.89
2019-05-05T01:30:51.583Z,12.84
2019-05-05T01:33:29.747Z,12.81
2019-05-05T01:36:00.405Z,12.78
2019-05-05T01:38:41.784Z,12.70
2019-05-05T01:41:14.725Z,12.70
2019-05-05T01:43:46.308Z,12.59
2019-05-05T01:46:17.847Z,12.56
2019-05-05T01:48:50.469Z,12.49
2019-05-05T01:51:22.024Z,12.39
2019-05-05T01:53:54.540Z,12.38
2019-05-05T01:56:25.342Z,12.34
2019-05-05T01:58:55.879Z,12.36
2019-05-05T02:01:27.487Z,12.39
2019-05-05T02:03:59.043Z,12.35
2019-05-05T02:06:29.573Z,12.36
2019-05-05T02:09:01.143Z,12.33
2019-05-05T02:11:35.176Z,12.25
2019-05-05T02:14:06.425Z,12.27
2019-05-05T02:16:37.937Z,12.23
2019-05-05T02:19:09.443Z,12.23
2019-05-05T02:21:40.980Z,12.21
2019-05-05T02:24:11.509Z,12.18
2019-05-05T02:26:43.037Z,12.15
2019-05-05T02:29:17.153Z,12.10
2019-05-05T02:32:07.552Z,12.08
2019-05-05T02:34:39.623Z,12.07
2019-05-05T02:37:10.114Z,12.05
2019-05-05T02:39:46.103Z,12.03
2019-05-05T02:42:14.670Z,12.10
2019-05-05T02:44:45.788Z,12.12
2019-05-05T02:47:35.190Z,12.11
2019-05-05T02:50:06.680Z,12.17
2019-05-05T02:52:38.603Z,12.20
2019-05-05T02:55:09.773Z,12.29
2019-05-05T02:57:40.698Z,12.35
2019-05-05T03:00:24.995Z,12.35
2019-05-05T03:02:57.065Z,12.41
2019-05-05T03:05:27.661Z,12.41
2019-05-05T03:07:58.656Z,12.38
2019-05-05T03:10:33.862Z,12.47
2019-05-05T03:13:04.917Z,12.56
2019-05-05T03:15:40.678Z,12.61
2019-05-05T03:18:11.140Z,12.60
2019-05-05T03:20:43.990Z,12.68
2019-05-05T03:23:14.644Z,12.70
2019-05-05T03:25:47.205Z,12.77
2019-05-05T03:28:18.095Z,12.75
2019-05-05T03:30:48.705Z,12.86
2019-05-05T03:33:19.351Z,12.89
2019-05-05T03:35:49.913Z,12.87
2019-05-05T03:38:20.446Z,12.91
2019-05-05T03:40:54.186Z,12.96
2019-05-05T03:43:26.529Z,13.25
2019-05-05T03:45:58.583Z,13.40
2019-05-05T03:48:29.076Z,13.64
2019-05-05T03:50:59.803Z,13.77
2019-05-05T03:53:33.652Z,14.22
2019-05-05T03:56:04.718Z,14.30
2019-05-05T03:58:35.218Z,14.25
2019-05-05T04:01:23.977Z,14.62
2019-05-05T04:03:56.104Z,15.13
2019-05-05T04:06:37.685Z,15.99
2019-05-05T04:09:08.800Z,16.99
2019-05-05T04:11:39.414Z,16.83
2019-05-05T04:14:09.941Z,17.19
2019-05-05T04:16:46.579Z,17.43
2019-05-05T04:19:19.815Z,16.89
2019-05-05T04:21:51.296Z,18.18
2019-05-05T04:24:23.880Z,18.68
2019-05-05T04:26:55.619Z,19.41
2019-05-05T04:29:26.117Z,20.27
2019-05-05T04:31:56.659Z,19.68
2019-05-05T04:34:27.146Z,19.39
2019-05-05T04:36:57.659Z,19.41
2019-05-05T04:39:29.148Z,20.72
2019-05-05T04:41:59.648Z,20.78
2019-05-05T04:44:30.150Z,20.91
2019-05-05T04:47:03.873Z,21.31
2019-05-05T04:49:45.164Z,22.02
2019-05-05T04:52:23.670Z,22.21
2019-05-05T04:54:55.793Z,22.24
2019-05-05T04:57:27.462Z,22.83
2019-05-05T04:59:59.106Z,23.45
2019-05-05T05:02:31.149Z,22.74
2019-05-05T05:05:04.037Z,23.90
2019-05-05T05:07:34.605Z,23.71
2019-05-05T05:10:06.732Z,23.76
2019-05-05T05:12:37.157Z,24.61
2019-05-05T05:15:07.691Z,23.31
2019-05-05T05:17:44.313Z,23.86
2019-05-05T05:20:14.870Z,23.71
2019-05-05T05:22:45.404Z,23.96
2019-05-05T05:25:15.877Z,22.37
2019-05-05T05:27:46.984Z,23.44
2019-05-05T05:30:17.499Z,23.06
2019-05-05T05:32:48.082Z,23.40
2019-05-05T05:35:18.581Z,22.61
2019-05-05T05:37:49.108Z,23.25
2019-05-05T05:40:23.936Z,23.72
2019-05-05T05:42:54.454Z,24.04
2019-05-05T05:45:26.499Z,23.97
2019-05-05T05:48:14.537Z,23.50
2019-05-05T05:50:47.663Z,25.98
2019-05-05T05:53:18.263Z,27.13
2019-05-05T05:55:53.757Z,24.22
2019-05-05T05:58:25.509Z,24.72
2019-05-05T06:00:57.223Z,25.06
2019-05-05T06:03:28.746Z,25.43
2019-05-05T06:05:59.296Z,25.39
2019-05-05T06:08:30.088Z,24.85
2019-05-05T06:11:00.752Z,24.54
2019-05-05T06:13:33.617Z,25.56
2019-05-05T06:16:04.592Z,25.91
2019-05-05T06:18:35.026Z,25.78
2019-05-05T06:21:05.519Z,25.32
2019-05-05T06:23:36.010Z,25.83
2019-05-05T06:26:07.189Z,26.04
2019-05-05T06:28:37.904Z,23.73
2019-05-05T06:31:08.420Z,26.21
2019-05-05T06:33:38.954Z,24.67
2019-05-05T06:36:09.488Z,25.97
2019-05-05T06:38:39.943Z,26.64
2019-05-05T06:41:21.167Z,25.23
2019-05-05T06:43:56.998Z,24.61
2019-05-05T06:46:30.223Z,25.43
2019-05-05T06:49:00.727Z,25.15
2019-05-05T06:51:33.552Z,26.38
2019-05-05T06:54:07.504Z,24.89
2019-05-05T06:56:38.972Z,25.36
2019-05-05T06:59:09.602Z,25.46
2019-05-05T07:01:44.279Z,27.66
2019-05-05T07:04:16.166Z,26.79
2019-05-05T07:06:54.145Z,24.95
2019-05-05T07:09:23.989Z,24.86
2019-05-05T07:11:54.458Z,24.33
2019-05-05T07:14:24.881Z,26.49
2019-05-05T07:16:55.414Z,26.71
2019-05-05T07:19:25.882Z,28.06
2019-05-05T07:21:57.447Z,28.22
2019-05-05T07:24:28.033Z,26.90
2019-05-05T07:26:58.456Z,27.44
2019-05-05T07:29:29.000Z,27.18
2019-05-05T07:31:59.498Z,26.71
2019-05-05T07:34:33.403Z,25.58
2019-05-05T07:37:03.904Z,25.75
2019-05-05T07:39:42.063Z,26.37
2019-05-05T07:42:13.755Z,27.01
2019-05-05T07:44:45.429Z,26.57
2019-05-05T07:47:15.944Z,27.21
2019-05-05T07:49:46.419Z,26.67
2019-05-05T07:52:18.203Z,28.61
2019-05-05T07:54:48.690Z,27.72
2019-05-05T07:57:19.314Z,27.42
2019-05-05T07:59:53.919Z,27.51
2019-05-05T08:02:24.000Z,27.55
2019-05-05T08:04:56.690Z,26.93
2019-05-05T08:07:27.186Z,25.93
2019-05-05T08:09:57.769Z,25.09
2019-05-05T08:12:29.286Z,24.36
2019-05-05T08:14:59.775Z,23.25
2019-05-05T08:17:33.982Z,23.12
2019-05-05T08:20:19.243Z,22.83
2019-05-05T08:22:48.530Z,22.49
2019-05-05T08:25:36.846Z,22.94
2019-05-05T08:28:14.688Z,23.36
2019-05-05T08:30:51.029Z,23.32
2019-05-05T08:33:21.620Z,22.67
2019-05-05T08:35:54.001Z,22.79
2019-05-05T08:38:24.366Z,22.91
2019-05-05T08:40:54.975Z,23.61
2019-05-05T08:43:25.592Z,23.09
2019-05-05T08:45:57.273Z,22.43
2019-05-05T08:48:27.864Z,22.39
2019-05-05T08:50:58.401Z,22.73
2019-05-05T08:53:42.490Z,22.33
2019-05-05T08:56:04.136Z,22.23
2019-05-05T08:58:37.685Z,22.24
2019-05-05T09:01:09.272Z,22.30
2019-05-05T09:03:40.059Z,22.59
2019-05-05T09:06:11.046Z,22.35
2019-05-05T09:08:43.909Z,22.56
2019-05-05T09:11:16.401Z,22.79
2019-05-05T09:13:50.095Z,22.55
2019-05-05T09:16:20.868Z,22.45
2019-05-05T09:19:14.617Z,22.27
2019-05-05T09:21:46.605Z,22.54
2019-05-05T09:24:18.846Z,22.71
2019-05-05T09:26:51.214Z,22.75
2019-05-05T09:29:26.677Z,22.85
2019-05-05T09:31:57.273Z,22.62
2019-05-05T09:34:27.773Z,22.53
2019-05-05T09:36:59.171Z,22.44
2019-05-05T09:39:29.727Z,22.36
2019-05-05T09:42:01.585Z,22.32
2019-05-05T09:44:34.469Z,22.33
2019-05-05T09:47:04.968Z,22.63
2019-05-05T09:49:35.675Z,22.33
2019-05-05T09:52:14.010Z,22.55
2019-05-05T09:54:48.355Z,22.28
2019-05-05T09:57:18.913Z,22.48
2019-05-05T09:59:50.659Z,22.76
2019-05-05T10:02:21.166Z,22.69
2019-05-05T10:04:51.721Z,22.35
2019-05-05T10:07:24.232Z,22.68
2019-05-05T10:09:56.477Z,22.70
2019-05-05T10:12:29.619Z,22.77
2019-05-05T10:15:00.185Z,23.06
2019-05-05T10:17:30.746Z,23.12
2019-05-05T10:20:04.894Z,22.72
2019-05-05T10:22:35.741Z,22.98
2019-05-05T10:25:24.748Z,23.04
2019-05-05T10:27:55.588Z,22.87
2019-05-05T10:30:26.315Z,22.87
2019-05-05T10:32:56.927Z,23.27
2019-05-05T10:35:28.567Z,23.36
2019-05-05T10:37:59.170Z,23.03
2019-05-05T10:40:33.858Z,22.81
2019-05-05T10:43:06.076Z,22.78
2019-05-05T10:45:36.936Z,22.98
2019-05-05T10:48:07.737Z,23.29
2019-05-05T10:50:40.909Z,23.63
2019-05-05T10:53:19.677Z,23.52
2019-05-05T10:55:50.536Z,23.59
2019-05-05T10:58:24.931Z,23.69
2019-05-05T11:00:58.786Z,23.40
2019-05-05T11:03:29.443Z,23.49
2019-05-05T11:06:01.004Z,23.40
2019-05-05T11:08:31.810Z,23.44
2019-05-05T11:11:04.268Z,23.35
2019-05-05T11:13:34.965Z,23.46
2019-05-05T11:16:06.679Z,23.25
2019-05-05T11:18:38.344Z,23.44
2019-05-05T11:21:08.832Z,23.59
2019-05-05T11:23:44.802Z,23.55
2019-05-05T11:26:20.807Z,23.51
2019-05-05T11:28:53.826Z,23.37
2019-05-05T11:31:35.999Z,23.36
2019-05-05T11:34:13.854Z,23.22
2019-05-05T11:36:47.758Z,23.24
2019-05-05T11:39:18.507Z,23.39
2019-05-05T11:41:49.968Z,23.38
2019-05-05T11:44:20.521Z,23.49
2019-05-05T11:46:51.006Z,23.20
2019-05-05T11:49:21.577Z,23.32
2019-05-05T11:51:54.333Z,23.33
2019-05-05T11:54:25.208Z,23.58
2019-05-05T11:56:55.610Z,23.70
2019-05-05T11:59:29.254Z,23.72
2019-05-05T12:02:00.842Z,23.92
2019-05-05T12:04:31.525Z,23.69
2019-05-05T12:07:03.969Z,23.63
2019-05-05T12:09:37.087Z,23.32
2019-05-05T12:12:08.922Z,23.46
2019-05-05T12:14:39.452Z,23.29
2019-05-05T12:17:10.023Z,23.49
2019-05-05T12:19:40.759Z,23.45
2019-05-05T12:22:15.051Z,23.55
2019-05-05T12:24:47.377Z,24.02
2019-05-05T12:27:19.503Z,23.78
2019-05-05T12:29:50.708Z,23.83
2019-05-05T12:32:21.306Z,23.65
2019-05-05T12:34:53.654Z,23.61
2019-05-05T12:37:25.077Z,23.46
2019-05-05T12:39:55.794Z,23.44
2019-05-05T12:42:26.579Z,23.53
2019-05-05T12:44:59.331Z,23.45
2019-05-05T12:47:38.156Z,23.63
2019-05-05T12:50:08.899Z,23.68
2019-05-05T12:52:39.492Z,23.52
2019-05-05T12:55:10.304Z,23.27
2019-05-05T12:57:40.952Z,23.18
2019-05-05T13:00:14.498Z,23.30
2019-05-05T13:02:44.585Z,23.64
2019-05-05T13:05:15.103Z,23.58
2019-05-05T13:07:45.851Z,23.49
2019-05-05T13:10:18.129Z,23.71
2019-05-05T13:12:49.061Z,23.66
2019-05-05T13:15:20.905Z,23.73
2019-05-05T13:17:51.482Z,23.39
2019-05-05T13:20:39.002Z,23.58
2019-05-05T13:23:23.531Z,23.62
2019-05-05T13:26:04.358Z,23.83
2019-05-05T13:28:38.109Z,23.68
2019-05-05T13:31:08.707Z,23.50
2019-05-05T13:33:40.490Z,23.50
2019-05-05T13:36:13.620Z,23.37
2019-05-05T13:38:51.737Z,23.23
2019-05-05T13:41:21.739Z,23.23
2019-05-05T13:43:53.962Z,23.27
2019-05-05T13:46:26.161Z,23.17
2019-05-05T13:48:59.376Z,22.99
2019-05-05T13:51:30.909Z,22.96
2019-05-05T13:54:07.882Z,22.87
2019-05-05T13:56:44.141Z,22.92
2019-05-05T13:59:16.722Z,22.87
2019-05-05T14:01:50.547Z,22.82
2019-05-05T14:04:21.102Z,22.68
2019-05-05T14:06:51.632Z,22.99
2019-05-05T14:09:23.254Z,22.94
2019-05-05T14:11:53.831Z,22.94
2019-05-05T14:14:24.370Z,22.91
2019-05-05T14:16:55.016Z,23.03
2019-05-05T14:19:26.561Z,23.07
2019-05-05T14:21:57.097Z,23.12
2019-05-05T14:24:38.262Z,23.17
2019-05-05T14:27:08.793Z,23.19
2019-05-05T14:29:45.121Z,23.24
2019-05-05T14:32:17.263Z,23.08
2019-05-05T14:35:06.154Z,23.08
2019-05-05T14:37:38.277Z,23.13
2019-05-05T14:40:10.384Z,23.25
2019-05-05T14:42:40.895Z,23.19
2019-05-05T14:45:12.256Z,23.20
2019-05-05T14:47:44.231Z,23.22
2019-05-05T14:50:17.017Z,23.09
2019-05-05T14:52:47.653Z,23.02
2019-05-05T14:55:18.171Z,22.98
2019-05-05T14:57:48.672Z,22.98
2019-05-05T15:00:21.143Z,22.93
2019-05-05T15:02:51.758Z,22.76
2019-05-05T15:05:44.464Z,22.81
2019-05-05T15:08:16.756Z,22.84
2019-05-05T15:11:07.039Z,22.91
2019-05-05T15:13:37.528Z,22.84
2019-05-05T15:16:10.082Z,22.81
2019-05-05T15:18:40.391Z,22.74
2019-05-05T15:21:11.403Z,22.76
2019-05-05T15:23:44.207Z,22.75
2019-05-05T15:26:14.757Z,22.59
2019-05-05T15:28:58.587Z,22.63
2019-05-05T15:31:17.873Z,22.60
2019-05-05T15:33:49.530Z,22.57
2019-05-05T15:36:21.597Z,22.49
2019-05-05T15:38:55.184Z,22.45
2019-05-05T15:41:27.991Z,22.28
2019-05-05T15:44:00.573Z,22.27
2019-05-05T15:46:36.482Z,22.20
2019-05-05T15:49:07.178Z,22.23
2019-05-05T15:51:37.848Z,22.18
2019-05-05T15:54:08.367Z,22.11
2019-05-05T15:56:38.894Z,22.09
2019-05-05T15:59:09.421Z,22.05
2019-05-05T16:01:43.430Z,22.00
2019-05-05T16:04:15.247Z,21.92
2019-05-05T16:06:45.988Z,21.89
2019-05-05T16:09:19.925Z,21.89
2019-05-05T16:11:50.508Z,21.83
2019-05-05T16:14:23.842Z,21.80
2019-05-05T16:17:13.632Z,21.71
2019-05-05T16:19:56.936Z,21.69
2019-05-05T16:22:34.517Z,21.56
2019-05-05T16:25:11.208Z,21.54
2019-05-05T16:27:44.026Z,21.48
2019-05-05T16:30:15.318Z,21.37
2019-05-05T16:32:47.909Z,21.30
2019-05-05T16:35:19.069Z,21.23
2019-05-05T16:37:49.569Z,21.07
2019-05-05T16:40:22.968Z,21.06
2019-05-05T16:42:54.170Z,21.01
2019-05-05T16:45:25.506Z,20.86
2019-05-05T16:47:56.138Z,20.79
2019-05-05T16:50:27.710Z,20.72
2019-05-05T16:52:59.798Z,20.76
2019-05-05T16:55:41.170Z,20.73
2019-05-05T16:58:13.774Z,20.61
2019-05-05T17:00:44.213Z,20.44
2019-05-05T17:03:14.740Z,20.18
2019-05-05T17:05:46.727Z,20.25
2019-05-05T17:08:17.584Z,20.23
2019-05-05T17:10:48.138Z,20.09
2019-05-05T17:13:38.587Z,19.95
2019-05-05T17:16:17.561Z,19.99
2019-05-05T17:18:49.632Z,20.02
2019-05-05T17:21:21.733Z,19.96
2019-05-05T17:23:54.005Z,19.98
2019-05-05T17:26:25.926Z,19.89
2019-05-05T17:28:56.542Z,19.82
2019-05-05T17:31:27.182Z,19.77
2019-05-05T17:33:57.696Z,19.73
2019-05-05T17:36:29.206Z,19.64
2019-05-05T17:38:59.704Z,19.57
2019-05-05T17:41:45.934Z,19.53
2019-05-05T17:44:21.152Z,19.50
2019-05-05T17:46:56.247Z,19.44
2019-05-05T17:49:34.373Z,19.39
2019-05-05T17:52:19.804Z,19.18
2019-05-05T17:54:53.893Z,19.25
2019-05-05T17:57:24.657Z,19.24
2019-05-05T17:59:58.852Z,19.01
2019-05-05T18:02:29.420Z,18.87
2019-05-05T18:04:59.929Z,18.93
2019-05-05T18:07:34.462Z,18.89
2019-05-05T18:10:07.617Z,18.92
2019-05-05T18:12:40.713Z,18.91
2019-05-05T18:15:15.888Z,18.88
2019-05-05T18:17:47.490Z,18.71
2019-05-05T18:20:18.006Z,18.71
2019-05-05T18:22:48.439Z,18.73
2019-05-05T18:25:18.907Z,18.69
2019-05-05T18:27:50.426Z,18.58
2019-05-05T18:30:24.051Z,18.62
2019-05-05T18:32:54.598Z,18.60
2019-05-05T18:35:26.081Z,18.52
2019-05-05T18:37:56.530Z,18.47
2019-05-05T18:40:27.082Z,18.35
2019-05-05T18:42:59.176Z,18.37
2019-05-05T18:45:29.669Z,18.33
2019-05-05T18:48:00.215Z,18.30
2019-05-05T18:50:30.808Z,18.35
2019-05-05T18:53:01.290Z,18.30
2019-05-05T18:55:33.791Z,18.25
2019-05-05T18:58:06.588Z,18.25
2019-05-05T19:00:48.021Z,18.17
2019-05-05T19:03:22.092Z,18.15
2019-05-05T19:06:12.518Z,18.11
2019-05-05T19:08:54.270Z,18.06
2019-05-05T19:11:17.726Z,18.04
2019-05-05T19:13:53.980Z,17.93
2019-05-05T19:16:24.265Z,17.91
2019-05-05T19:18:55.724Z,17.82
2019-05-05T19:21:34.029Z,17.82
2019-05-05T19:24:06.916Z,17.82
2019-05-05T19:26:38.519Z,17.82
2019-05-05T19:29:09.118Z,17.63
2019-05-05T19:31:39.594Z,17.50
2019-05-05T19:34:10.118Z,17.54
2019-05-05T19:36:40.603Z,17.54
2019-05-05T19:39:11.148Z,17.45
2019-05-05T19:41:46.566Z,17.38
2019-05-05T19:44:36.987Z,17.36
2019-05-05T19:47:10.660Z,17.30
2019-05-05T19:49:44.875Z,17.30
2019-05-05T19:52:15.454Z,17.23
2019-05-05T19:54:47.596Z,17.23
2019-05-05T19:57:19.556Z,17.07
2019-05-05T19:59:50.051Z,17.04
2019-05-05T20:02:20.585Z,17.05
2019-05-05T20:04:51.218Z,17.00
2019-05-05T20:07:21.678Z,17.00
2019-05-05T20:09:54.369Z,17.01
2019-05-05T20:12:25.982Z,17.04
2019-05-05T20:14:56.805Z,16.84
2019-05-05T20:17:28.870Z,16.86
2019-05-05T20:20:00.295Z,16.84
2019-05-05T20:22:30.806Z,16.81
2019-05-05T20:25:01.339Z,16.68
2019-05-05T20:27:31.851Z,16.68
2019-05-05T20:30:06.257Z,16.65
2019-05-05T20:32:42.029Z,16.69
2019-05-05T20:35:14.841Z,16.71
2019-05-05T20:38:06.461Z,16.61
2019-05-05T20:40:38.547Z,16.52
2019-05-05T20:43:10.066Z,16.42
2019-05-05T20:45:41.513Z,16.40
2019-05-05T20:48:12.051Z,16.43
2019-05-05T20:50:43.902Z,16.43
2019-05-05T20:53:18.203Z,16.53
2019-05-05T20:55:48.679Z,16.50
2019-05-05T20:58:19.214Z,16.50
2019-05-05T21:00:50.809Z,16.44
2019-05-05T21:03:23.551Z,16.40
2019-05-05T21:05:54.914Z,16.38
2019-05-05T21:08:26.407Z,16.24
2019-05-05T21:10:56.908Z,16.26
2019-05-05T21:13:28.447Z,16.33
2019-05-05T21:16:01.129Z,16.28
2019-05-05T21:18:31.675Z,16.15
2019-05-05T21:21:04.865Z,16.08
2019-05-05T21:23:37.221Z,16.03
2019-05-05T21:26:16.148Z,16.08
2019-05-05T21:28:46.777Z,16.07
2019-05-05T21:31:18.288Z,16.01
2019-05-05T21:33:48.858Z,15.94
2019-05-05T21:36:19.341Z,15.81
2019-05-05T21:38:49.861Z,15.84
2019-05-05T21:41:20.427Z,15.78
2019-05-05T21:43:50.945Z,15.79
2019-05-05T21:46:21.452Z,15.72
2019-05-05T21:48:54.069Z,15.76
2019-05-05T21:51:37.937Z,15.69
2019-05-05T21:54:29.450Z,15.53
2019-05-05T21:57:18.025Z,15.46
2019-05-05T21:59:55.412Z,15.44
2019-05-05T22:02:20.695Z,15.34
2019-05-05T22:04:51.214Z,15.33
2019-05-05T22:07:24.108Z,15.23
2019-05-05T22:09:55.126Z,15.26
2019-05-05T22:12:25.627Z,15.18
2019-05-05T22:14:56.104Z,15.20
2019-05-05T22:17:26.567Z,15.21
2019-05-05T22:20:05.615Z,15.23
2019-05-05T22:22:37.700Z,15.21
2019-05-05T22:25:08.309Z,15.26
2019-05-05T22:27:39.850Z,15.23
2019-05-05T22:30:11.453Z,15.20
2019-05-05T22:32:43.943Z,15.22
2019-05-05T22:35:16.153Z,15.23
2019-05-05T22:37:47.231Z,15.23
2019-05-05T22:40:24.148Z,15.27
2019-05-05T22:42:54.673Z,15.34
2019-05-05T22:45:26.869Z,15.34
2019-05-05T22:48:00.283Z,15.29
2019-05-05T22:50:30.811Z,15.34
2019-05-05T22:53:02.426Z,15.29
2019-05-05T22:55:34.401Z,15.24
2019-05-05T22:58:05.052Z,15.21
2019-05-05T23:00:35.529Z,15.17
2019-05-05T23:03:10.088Z,15.21
2019-05-05T23:05:43.820Z,15.08
2019-05-05T23:08:14.420Z,15.02
2019-05-05T23:10:44.883Z,14.97
2019-05-05T23:13:15.397Z,15.05
2019-05-05T23:15:56.409Z,15.06
2019-05-05T23:18:27.902Z,15.13
2019-05-05T23:21:15.948Z,15.08
2019-05-05T23:23:57.231Z,15.06
2019-05-05T23:26:29.260Z,14.97
2019-05-05T23:28:59.762Z,14.90
2019-05-05T23:31:33.437Z,14.91
2019-05-05T23:34:04.018Z,14.85
2019-05-05T23:36:34.645Z,14.91
2019-05-05T23:39:06.529Z,15.00
2019-05-05T23:41:38.066Z,14.99
2019-05-05T23:44:08.579Z,14.97
2019-05-05T23:46:39.197Z,14.98
2019-05-05T23:49:09.706Z,15.02
2019-05-05T23:51:40.204Z,15.06
2019-05-05T23:54:10.684Z,15.08
2019-05-05T23:56:41.185Z,15.11
2019-05-05T23:59:13.545Z,15.15
